Time;durP1;ratioP1;P1;durP2;ratioP2;P2;SDS_P1;SDS_P2;PMS_P1;PMS_P2;Temp;Humidity;BMP_temperature;BMP_pressure;BME280_temperature;BME280_humidity;BME280_pressure;Samples;Min_cycle;Max_cycle;Signal;HPM_P1;HPM_P2
2022/03/01 00:01:59;;;;;;;17.13;8.60;;;;;;;1.18;67.36;95518.94;5084337;28;20262;-81
2022/03/01 00:04:24;;;;;;;17.37;9.07;;;;;;;1.19;67.92;95525.75;5079022;28;20170;-80
2022/03/01 00:06:50;;;;;;;18.87;8.47;;;;;;;1.03;68.13;95495.22;5081158;28;20572;-80
2022/03/01 00:09:15;;;;;;;17.23;8.10;;;;;;;0.98;68.09;95486.19;5076957;28;20190;-80
2022/03/01 00:11:41;;;;;;;17.97;8.53;;;;;;;0.72;68.18;95449.63;5076419;28;20190;-81
2022/03/01 00:14:06;;;;;;;22.87;9.53;;;;;;;0.68;68.81;95443.09;5077238;28;20174;-80
2022/03/01 00:16:33;;;;;;;18.20;8.10;;;;;;;0.92;68.89;95505.69;5080241;28;20214;-80
2022/03/01 00:18:59;;;;;;;16.63;7.33;;;;;;;0.97;69.57;95500.91;5071869;28;20174;-80
2022/03/01 00:21:25;;;;;;;12.83;7.07;;;;;;;0.87;69.33;95488.91;5071976;28;20190;-80
2022/03/01 00:23:51;;;;;;;13.50;7.83;;;;;;;0.76;69.23;95482.09;5072604;28;20614;-80
2022/03/01 00:26:17;;;;;;;32.20;29.80;;;;;;;0.63;68.92;95472.00;5075315;28;20273;-80
2022/03/01 00:28:43;;;;;;;238.30;223.23;;;;;;;0.72;69.52;95491.09;5075205;28;20209;-80
2022/03/01 00:31:08;;;;;;;289.80;271.00;;;;;;;0.70;69.00;95487.81;5075517;28;20233;-80
2022/03/01 00:33:34;;;;;;;421.87;395.73;;;;;;;0.58;69.75;95452.63;5074925;28;20175;-80
2022/03/01 00:36:00;;;;;;;572.33;532.07;;;;;;;0.77;69.18;95490.69;5075950;28;20174;-80
2022/03/01 00:38:25;;;;;;;467.50;439.43;;;;;;;0.68;69.88;95469.00;5084351;28;20174;-80
2022/03/01 00:40:51;;;;;;;490.47;458.10;;;;;;;0.59;69.89;95464.63;5087631;28;20205;-80
2022/03/01 00:43:16;;;;;;;464.53;433.37;;;;;;;0.45;69.77;95431.34;5085855;28;20197;-80
2022/03/01 00:45:42;;;;;;;565.43;532.80;;;;;;;0.75;70.24;95481.28;5082246;28;20255;-80
2022/03/01 00:48:07;;;;;;;985.13;626.93;;;;;;;0.31;70.50;95417.84;5074844;28;20205;-80
2022/03/01 00:50:33;;;;;;;361.90;340.07;;;;;;;0.68;70.05;95480.19;5075010;28;20253;-80
2022/03/01 00:52:58;;;;;;;391.23;366.23;;;;;;;0.33;70.33;95417.72;5074814;28;20161;-80
2022/03/01 00:55:24;;;;;;;960.60;602.80;;;;;;;0.49;70.77;95443.09;5074872;28;20219;-80
2022/03/01 00:57:49;;;;;;;560.30;525.73;;;;;;;0.61;70.32;95463.53;5074454;28;20262;-80
2022/03/01 01:00:15;;;;;;;613.33;576.33;;;;;;;0.74;69.75;95468.47;5074637;28;20607;-80
2022/03/01 01:02:41;;;;;;;555.00;520.53;;;;;;;0.54;69.63;95440.91;5074486;28;20174;-80
2022/03/01 01:05:07;;;;;;;488.03;458.90;;;;;;;0.63;69.94;95459.03;5074358;28;20194;-80
2022/03/01 01:07:33;;;;;;;574.50;539.77;;;;;;;0.52;70.04;95438.44;5079966;28;20175;-80
2022/03/01 01:09:58;;;;;;;566.30;532.13;;;;;;;0.67;69.50;95467.38;5082552;28;20178;-80
2022/03/01 01:12:24;;;;;;;604.03;562.00;;;;;;;0.11;70.25;95392.06;5080827;28;20198;-80
2022/03/01 01:14:49;;;;;;;484.70;447.20;;;;;;;0.21;70.10;95422.19;5084358;28;20193;-80
2022/03/01 01:17:15;;;;;;;1999.90;999.90;;;;;;;0.31;71.22;95448.09;5083450;28;20190;-80
2022/03/01 01:19:41;;;;;;;1999.90;999.90;;;;;;;0.19;72.00;95429.28;5079216;28;20655;-80
2022/03/01 01:24:50;;;;;;;1999.90;999.90;;;;;;;0.25;73.52;95452.06;5074136;28;20254;-80
2022/03/01 01:27:15;;;;;;;1999.90;999.90;;;;;;;0.27;73.23;95441.53;5074168;28;20242;-80
2022/03/01 01:29:41;;;;;;;1999.90;999.90;;;;;;;0.37;73.88;95460.50;5073780;28;20174;-80
2022/03/01 01:32:07;;;;;;;1999.90;999.90;;;;;;;0.33;74.25;95456.56;5074242;28;20162;-80
2022/03/01 01:34:33;;;;;;;1999.90;999.90;;;;;;;0.25;73.92;95436.53;5074126;28;20667;-80
2022/03/01 01:36:58;;;;;;;1999.90;999.90;;;;;;;0.30;74.49;95449.88;5074335;28;20197;-80
2022/03/01 01:39:24;;;;;;;1999.90;999.90;;;;;;;0.27;74.47;95444.94;5073830;28;20159;-80
2022/03/01 01:41:49;;;;;;;1999.90;999.90;;;;;;;-0.27;74.54;95369.53;5073798;28;20197;-80
2022/03/01 01:44:15;;;;;;;1999.90;999.90;;;;;;;-0.14;74.93;95388.19;5073585;28;20234;-80
2022/03/01 01:46:40;;;;;;;1999.90;999.90;;;;;;;0.04;74.65;95422.84;5073247;28;20190;-80
2022/03/01 01:49:06;;;;;;;1999.90;999.90;;;;;;;-0.38;74.72;95362.69;5073740;28;20169;-80
2022/03/01 01:51:31;;;;;;;1999.90;999.90;;;;;;;0.04;74.94;95422.03;5091758;28;20178;-80
2022/03/01 01:53:57;;;;;;;1999.90;999.90;;;;;;;-0.21;73.65;95387.91;5081062;28;20178;-80
2022/03/01 01:56:22;;;;;;;1999.90;999.90;;;;;;;0.06;72.99;95438.25;5084572;28;20166;-83
2022/03/01 01:58:48;;;;;;;1999.90;999.90;;;;;;;-0.50;74.21;95367.13;5083046;28;20299;-83
2022/03/01 02:01:14;;;;;;;1999.90;999.90;;;;;;;-0.48;74.40;95359.25;5092050;28;20184;-82
2022/03/01 02:03:39;;;;;;;27.50;11.37;;;;;;;-0.41;74.66;95381.88;5092102;28;20304;-83
2022/03/01 02:06:05;;;;;;;24.87;12.53;;;;;;;-0.15;75.20;95420.19;5093424;28;20684;-83
2022/03/01 02:08:31;;;;;;;20.30;11.30;;;;;;;-0.06;75.43;95434.94;5092013;28;20183;-83
2022/03/01 02:10:58;;;;;;;26.90;11.47;;;;;;;-0.07;76.38;95436.69;5092040;28;20172;-83
2022/03/01 02:13:24;;;;;;;21.13;10.40;;;;;;;-0.38;75.89;95394.53;5091932;28;20249;-83
2022/03/01 02:15:50;;;;;;;21.87;10.77;;;;;;;-0.42;75.85;95382.81;5091100;28;20354;-83
2022/03/01 02:18:16;;;;;;;19.47;10.23;;;;;;;-0.66;76.00;95338.38;5081742;28;20261;-80
2022/03/01 02:20:42;;;;;;;17.63;8.90;;;;;;;-0.44;75.76;95369.22;5090068;28;20270;-80
2022/03/01 02:23:07;;;;;;;19.47;9.77;;;;;;;-0.38;75.74;95371.25;5088399;28;20679;-80
2022/03/01 02:25:33;;;;;;;17.30;10.10;;;;;;;-0.22;75.65;95386.28;5076523;28;20225;-80
2022/03/01 02:27:59;;;;;;;13.37;8.20;;;;;;;-0.11;75.90;95395.72;5075288;28;20646;-80
2022/03/01 02:30:24;;;;;;;13.53;7.23;;;;;;;-0.35;75.72;95349.50;5081715;28;20261;-80
2022/03/01 02:32:50;;;;;;;11.37;7.07;;;;;;;-0.42;75.33;95346.59;5084364;28;20170;-80
2022/03/01 02:35:17;;;;;;;16.67;7.60;;;;;;;-0.14;75.53;95391.59;5086190;28;20171;-80
2022/03/01 02:37:43;;;;;;;12.47;7.23;;;;;;;-0.53;75.62;95338.16;5090580;28;20270;-80
2022/03/01 02:40:09;;;;;;;13.97;6.40;;;;;;;-0.21;75.53;95384.50;5092998;28;20188;-80
2022/03/01 02:42:36;;;;;;;13.63;6.60;;;;;;;-0.14;76.11;95391.59;5092789;28;20162;-80
2022/03/01 02:45:02;;;;;;;9.37;6.37;;;;;;;-0.14;74.98;95395.97;5092540;28;20166;-80
2022/03/01 02:47:27;;;;;;;13.10;7.53;;;;;;;-0.12;74.59;95401.84;5093153;28;20524;-80
2022/03/01 02:49:52;;;;;;;10.90;6.73;;;;;;;-0.08;75.47;95398.00;5092923;28;20237;-80
2022/03/01 02:52:18;;;;;;;12.53;7.47;;;;;;;-0.22;75.36;95390.63;5087189;28;20178;-80
2022/03/01 02:54:43;;;;;;;15.07;7.30;;;;;;;-0.38;75.27;95397.13;5081009;28;20200;-80
2022/03/01 02:57:09;;;;;;;18.90;8.17;;;;;;;-0.49;75.99;95383.47;5084101;28;20223;-80
2022/03/01 02:59:34;;;;;;;16.33;8.50;;;;;;;-0.72;76.43;95351.00;5083853;28;20162;-80
2022/03/01 03:02:00;;;;;;;23.90;11.03;;;;;;;-0.63;76.61;95368.31;5082000;28;20209;-79
2022/03/01 03:04:25;;;;;;;20.73;10.43;;;;;;;-0.58;76.76;95381.66;5080728;28;20249;-79
2022/03/01 03:06:51;;;;;;;18.53;11.37;;;;;;;-0.49;77.16;95402.38;5072680;28;20742;-80
2022/03/01 03:09:16;;;;;;;22.93;11.60;;;;;;;-0.43;77.22;95409.59;5072202;28;20574;-80
2022/03/01 03:11:43;;;;;;;18.23;11.07;;;;;;;-0.59;77.12;95387.78;5072153;28;20273;-80
2022/03/01 03:14:08;;;;;;;17.70;10.93;;;;;;;-0.41;76.90;95412.88;5072629;28;20606;-80
2022/03/01 03:16:34;;;;;;;22.97;14.00;;;;;;;-0.49;76.91;95402.38;5071852;28;20297;-80
2022/03/01 03:18:59;;;;;;;22.53;11.97;;;;;;;-0.44;77.81;95413.16;5072077;28;20176;-80
2022/03/01 03:21:25;;;;;;;27.47;12.97;;;;;;;-0.79;77.42;95355.88;5072013;28;20166;-80
2022/03/01 03:23:50;;;;;;;28.63;14.53;;;;;;;-0.68;77.53;95363.53;5072356;28;20174;-80
2022/03/01 03:26:16;;;;;;;22.60;12.90;;;;;;;-0.49;78.50;95389.47;5072409;28;20186;-80
2022/03/01 03:28:41;;;;;;;27.23;13.47;;;;;;;-0.56;77.93;95369.44;5070709;28;20852;-80
2022/03/01 03:31:07;;;;;;;27.77;15.67;;;;;;;-0.53;77.06;95367.41;5071896;28;20175;-80
2022/03/01 03:33:32;;;;;;;23.50;12.17;;;;;;;-0.28;77.90;95420.44;5072236;28;20300;-80
2022/03/01 03:35:58;;;;;;;24.60;13.97;;;;;;;-0.44;77.41;95394.25;5072473;28;20216;-80
2022/03/01 03:38:25;;;;;;;18.17;11.80;;;;;;;-0.31;77.29;95415.53;5071847;28;20223;-80
2022/03/01 03:40:51;;;;;;;24.47;11.90;;;;;;;-0.66;77.06;95369.38;5079832;28;20186;-80
2022/03/01 03:43:16;;;;;;;17.17;9.97;;;;;;;-0.36;77.01;95422.03;5080071;28;20228;-80
2022/03/01 03:45:42;;;;;;;15.40;9.00;;;;;;;-0.69;76.09;95372.22;5082923;28;20173;-80
2022/03/01 03:48:08;;;;;;;11.50;7.60;;;;;;;-0.38;76.75;95419.56;5083380;28;20544;-81
2022/03/01 03:50:33;;;;;;;15.37;7.73;;;;;;;-0.41;75.96;95419.81;5092227;28;20170;-80
2022/03/01 03:52:59;;;;;;;14.03;9.13;;;;;;;-0.68;76.06;95388.53;5091890;28;20174;-80
2022/03/01 03:55:24;;;;;;;19.57;9.23;;;;;;;-0.90;76.33;95359.34;5091947;28;20233;-80
2022/03/01 03:57:50;;;;;;;15.50;8.73;;;;;;;-0.54;75.65;95412.31;5093160;28;20165;-80
2022/03/01 04:00:17;;;;;;;16.10;9.23;;;;;;;-0.58;75.99;95412.69;5095836;28;20205;-80
2022/03/01 04:02:47;;;;;;;17.40;9.13;;;;;;;-0.83;76.21;95377.75;5095965;28;20151;-80
2022/03/01 04:05:13;;;;;;;18.60;10.33;;;;;;;-0.64;76.71;95410.63;5096201;28;20162;-80
2022/03/01 04:07:44;;;;;;;20.40;11.23;;;;;;;-0.74;76.89;95397.66;5095856;28;20206;-80
2022/03/01 04:10:11;;;;;;;21.17;12.17;;;;;;;-0.80;77.30;95391.22;5095623;28;20158;-80
2022/03/01 04:12:36;;;;;;;16.63;9.87;;;;;;;-0.59;76.85;95414.44;5094204;28;20234;-80
2022/03/01 04:15:04;;;;;;;17.03;9.83;;;;;;;-0.61;77.22;95402.63;5095529;28;20177;-80
2022/03/01 04:17:29;;;;;;;18.37;9.87;;;;;;;-0.65;76.87;95407.22;5095192;28;20700;-80
2022/03/01 04:19:55;;;;;;;17.60;9.70;;;;;;;-0.71;76.32;95384.47;5095307;28;20244;-81
2022/03/01 04:22:20;;;;;;;22.00;10.57;;;;;;;-0.72;76.49;95406.09;5089079;28;20177;-80
2022/03/01 04:24:45;;;;;;;22.70;10.83;;;;;;;-1.00;76.44;95365.41;5083480;28;20560;-80
2022/03/01 04:27:11;;;;;;;31.23;14.33;;;;;;;-0.79;76.65;95397.22;5083874;28;20189;-81
2022/03/01 04:29:36;;;;;;;72.53;30.83;;;;;;;-0.78;77.22;95414.38;5087036;28;20182;-81
2022/03/01 04:32:02;;;;;;;94.83;38.07;;;;;;;-0.97;76.92;95389.25;5095377;28;20158;-81
2022/03/01 04:34:28;;;;;;;111.63;45.00;;;;;;;-0.98;76.94;95391.94;5093854;28;20173;-81
2022/03/01 04:36:53;;;;;;;97.63;42.10;;;;;;;-0.90;77.19;95410.22;5083228;28;20195;-81
2022/03/01 04:39:19;;;;;;;90.53;40.70;;;;;;;-0.97;77.82;95416.84;5074772;28;20641;-81
2022/03/01 04:41:44;;;;;;;103.73;37.53;;;;;;;-1.32;77.14;95363.75;5074687;28;20162;-81
2022/03/01 04:44:10;;;;;;;70.87;28.70;;;;;;;-1.32;77.84;95370.66;5074624;28;20665;-81
2022/03/01 04:46:35;;;;;;;45.17;22.23;;;;;;;-1.31;78.59;95393.78;5083158;28;20197;-81
2022/03/01 04:49:01;;;;;;;46.97;21.77;;;;;;;-1.30;78.67;95387.69;5078551;28;20179;-81
2022/03/01 04:51:26;;;;;;;44.27;21.10;;;;;;;-1.06;78.82;95423.56;5084725;28;20177;-81
2022/03/01 04:53:52;;;;;;;36.30;17.23;;;;;;;-1.46;78.32;95350.31;5080035;28;20170;-81
2022/03/01 04:56:17;;;;;;;31.83;16.53;;;;;;;-1.50;77.96;95346.34;5074781;28;20159;-81
2022/03/01 04:58:43;;;;;;;31.67;15.30;;;;;;;-1.29;78.39;95376.38;5074345;28;20170;-81
2022/03/01 05:01:09;;;;;;;24.53;11.40;;;;;;;-0.88;78.64;95434.16;5074681;28;20512;-81
2022/03/01 05:03:34;;;;;;;20.03;11.03;;;;;;;-1.18;78.25;95366.00;5072981;28;20170;-80
2022/03/01 05:06:00;;;;;;;20.53;11.00;;;;;;;-1.11;77.56;95384.38;5074305;28;20243;-81
2022/03/01 05:08:30;;;;;;;16.53;8.00;;;;;;;-1.06;77.47;95365.94;5073903;28;20178;-81
2022/03/01 05:10:59;;;;;;;11.93;7.20;;;;;;;-0.56;76.55;95434.88;5074122;28;20238;-81
2022/03/01 05:13:25;;;;;;;15.07;8.07;;;;;;;-0.95;75.83;95356.31;5074143;28;20181;-81
2022/03/01 05:15:50;;;;;;;11.40;7.23;;;;;;;-0.62;74.85;95419.88;5072798;28;20619;-81
2022/03/01 05:18:15;;;;;;;11.77;7.57;;;;;;;-0.57;75.17;95427.25;5072773;28;20248;-81
2022/03/01 05:20:41;;;;;;;12.20;6.67;;;;;;;-0.77;75.44;95385.78;5073868;28;20158;-81
2022/03/01 05:23:07;;;;;;;14.53;7.83;;;;;;;-0.76;75.35;95382.25;5073909;28;20179;-81
2022/03/01 05:25:33;;;;;;;16.53;6.30;;;;;;;-0.03;74.87;95430.31;5074160;28;20265;-81
2022/03/01 05:27:58;;;;;;;12.03;5.47;;;;;;;0.28;71.08;95374.09;5074160;28;20166;-81
2022/03/01 05:30:25;;;;;;;9.47;5.53;;;;;;;1.70;68.11;95445.00;5079340;28;20957;-81
2022/03/01 05:32:51;;;;;;;1402.20;729.47;;;;;;;2.39;65.78;95396.94;5082547;28;20163;-81
2022/03/01 05:35:26;;;;;;;98.83;88.60;;;;;;;3.23;61.64;95384.31;5078406;28;20217;-81
2022/03/01 05:37:54;;;;;;;86.57;62.77;;;;;;;4.04;59.17;95429.84;5090007;28;20170;-81
2022/03/01 05:40:26;;;;;;;10.90;4.93;;;;;;;4.98;56.57;95444.41;5081888;28;20262;-81
2022/03/01 05:42:51;;;;;;;8.47;5.17;;;;;;;5.64;53.52;95450.25;5085466;28;20174;-82
2022/03/01 05:45:17;;;;;;;7.30;4.47;;;;;;;5.11;53.29;95465.59;5085188;28;20259;-81
2022/03/01 05:47:43;;;;;;;7.80;4.27;;;;;;;4.69;53.81;95452.66;5076903;28;20215;-81
2022/03/01 05:50:10;;;;;;;7.73;5.00;;;;;;;4.88;54.42;95431.50;5084989;28;20177;-81
2022/03/01 05:52:36;;;;;;;9.93;5.80;;;;;;;6.15;53.51;95466.47;5084666;28;20216;-81
2022/03/01 05:55:04;;;;;;;4.43;3.83;;;;;;;7.39;49.12;95469.06;5081722;28;20184;-81
2022/03/01 05:57:30;;;;;;;8.13;4.80;;;;;;;8.18;47.32;95470.31;5080710;28;20165;-81
2022/03/01 05:59:57;;;;;;;6.63;4.33;;;;;;;9.45;43.63;95467.97;5067941;28;20187;-82
2022/03/01 06:02:22;;;;;;;8.97;4.23;;;;;;;10.77;42.13;95463.59;5080763;28;20174;-82
2022/03/01 06:04:48;;;;;;;45.63;24.47;;;;;;;12.23;40.19;95464.59;5090723;28;20196;-80
2022/03/01 06:07:13;;;;;;;7.07;4.17;;;;;;;13.49;36.49;95465.75;5081370;28;20273;-80
2022/03/01 06:09:38;;;;;;;5.60;4.60;;;;;;;14.39;33.00;95450.38;5081343;28;20182;-82
2022/03/01 06:12:04;;;;;;;5.73;3.77;;;;;;;15.30;30.30;95468.88;5083393;28;20181;-79
2022/03/01 06:14:30;;;;;;;8.23;5.43;;;;;;;16.20;28.93;95464.25;5081637;28;20174;-80
2022/03/01 06:16:55;;;;;;;63.53;23.50;;;;;;;16.72;27.32;95462.50;5081617;28;20576;-80
2022/03/01 06:19:21;;;;;;;60.80;19.88;;;;;;;17.24;26.70;95473.13;5089566;28;20258;-80
2022/03/01 06:21:47;;;;;;;104.78;26.88;;;;;;;17.39;25.59;95464.63;5092608;28;20162;-80
2022/03/01 06:24:12;;;;;;;103.10;38.20;;;;;;;17.69;25.45;95474.03;5089813;28;20181;-80
2022/03/01 06:26:38;;;;;;;134.48;56.78;;;;;;;18.17;24.92;95454.00;5081503;28;20202;-79
2022/03/01 06:29:04;;;;;;;141.77;42.20;;;;;;;18.00;24.64;95466.53;5081177;28;20186;-79
2022/03/01 06:31:30;;;;;;;183.02;62.13;;;;;;;18.27;24.29;95446.19;5084431;28;20205;-80
2022/03/01 06:33:56;;;;;;;141.35;39.60;;;;;;;18.28;23.97;95463.78;5084570;28;20599;-79
2022/03/01 06:36:25;;;;;;;170.75;56.03;;;;;;;18.64;24.10;95454.47;5073608;28;20166;-81
2022/03/01 06:38:52;;;;;;;101.30;34.53;;;;;;;18.95;23.56;95445.00;5077059;28;20589;-80
2022/03/01 06:41:17;;;;;;;254.60;55.65;;;;;;;18.26;24.32;95475.75;5080545;28;20639;-81
2022/03/01 06:43:43;;;;;;;159.73;53.08;;;;;;;18.16;24.02;95427.63;5082511;28;20177;-83
2022/03/01 06:46:09;;;;;;;218.30;64.97;;;;;;;18.82;23.33;95424.03;5083628;28;20197;-79
2022/03/01 06:48:34;;;;;;;190.82;60.60;;;;;;;18.66;23.40;95455.06;5082361;28;20184;-79
2022/03/01 06:51:00;;;;;;;222.88;66.15;;;;;;;19.32;22.96;95465.72;5086565;28;20174;-79
2022/03/01 06:53:26;;;;;;;515.35;170.70;;;;;;;18.99;22.71;95456.81;5081306;28;20178;-79
2022/03/01 06:55:52;;;;;;;696.58;247.93;;;;;;;19.68;22.88;95454.38;5080963;28;20166;-80
2022/03/01 06:58:18;;;;;;;877.92;269.10;;;;;;;19.12;22.18;95403.03;5078115;28;20708;-79
2022/03/01 07:00:44;;;;;;;1999.90;665.47;;;;;;;18.13;22.88;95460.91;5082438;28;20184;-79
2022/03/01 07:03:10;;;;;;;1999.90;999.90;;;;;;;17.12;24.58;95448.44;5083638;28;20874;-80
2022/03/01 07:05:38;;;;;;;1758.68;694.88;;;;;;;17.04;25.16;95454.13;5083150;28;20551;-79
2022/03/01 07:08:04;;;;;;;1999.90;870.75;;;;;;;18.16;24.02;95462.28;5083496;28;20185;-79
2022/03/01 07:10:30;;;;;;;1999.90;999.90;;;;;;;18.40;22.51;95448.53;5077914;28;20174;-80
2022/03/01 07:12:55;;;;;;;1999.90;791.53;;;;;;;18.42;23.66;95467.72;5079889;28;20183;-78
2022/03/01 07:15:21;;;;;;;1617.47;301.65;;;;;;;15.90;25.36;95463.53;5086399;28;20189;-78
2022/03/01 07:17:47;;;;;;;99.67;91.87;;;;;;;13.49;29.38;95461.25;5082409;28;20223;-80
2022/03/01 07:20:13;;;;;;;16.00;15.00;;;;;;;14.48;28.92;95467.59;5080365;28;20178;-77
2022/03/01 07:22:39;;;;;;;283.73;262.27;;;;;;;14.41;28.35;95459.72;5082060;28;20200;-78
2022/03/01 07:25:05;;;;;;;44.97;42.37;;;;;;;13.09;30.02;95454.56;5084074;28;20684;-78
2022/03/01 07:27:31;;;;;;;552.53;268.97;;;;;;;12.39;31.57;95464.97;5080230;28;20178;-78
2022/03/01 07:29:57;;;;;;;407.70;369.87;;;;;;;12.34;32.01;95466.63;5078712;28;20645;-80
2022/03/01 07:32:23;;;;;;;302.17;275.33;;;;;;;12.80;31.89;95464.63;5081167;28;20235;-78
2022/03/01 07:34:48;;;;;;;206.27;191.67;;;;;;;11.63;32.46;95461.97;5083885;28;20182;-77
2022/03/01 07:37:14;;;;;;;96.97;89.17;;;;;;;10.71;34.47;95461.75;5082016;28;20174;-77
2022/03/01 07:39:39;;;;;;;9.10;7.07;;;;;;;10.75;35.14;95460.34;5088968;28;20234;-79
2022/03/01 07:42:05;;;;;;;72.30;33.20;;;;;;;10.40;34.92;95435.88;5087436;28;20212;-79
2022/03/01 07:44:31;;;;;;;76.43;31.87;;;;;;;10.14;35.31;95438.34;5082866;28;20598;-78
2022/03/01 07:46:57;;;;;;;79.87;65.40;;;;;;;10.81;35.63;95458.75;5083796;28;20198;-78
2022/03/01 07:49:22;;;;;;;1934.43;861.00;;;;;;;10.83;35.55;95460.16;5085952;28;20176;-79
2022/03/01 07:51:48;;;;;;;1999.90;914.33;;;;;;;10.26;36.79;95452.63;5081218;28;20208;-79
2022/03/01 07:54:14;;;;;;;1999.90;999.90;;;;;;;10.75;37.21;95449.81;5081028;28;20213;-78
2022/03/01 07:56:43;;;;;;;1550.03;541.30;;;;;;;10.25;35.52;95458.06;5084677;28;20169;-77
2022/03/01 07:59:08;;;;;;;1403.70;538.13;;;;;;;9.25;37.51;95419.69;5083454;28;20264;-78
2022/03/01 08:01:34;;;;;;;1463.13;689.93;;;;;;;9.22;39.29;95450.78;5083987;28;20680;-79
2022/03/01 08:03:59;;;;;;;1451.33;740.20;;;;;;;9.05;39.49;95430.00;5088861;28;20710;-80
2022/03/01 08:06:26;;;;;;;1085.13;615.93;;;;;;;8.64;39.22;95447.34;5083652;28;20189;-79
2022/03/01 08:08:53;;;;;;;289.80;182.57;;;;;;;7.69;40.99;95444.59;5086883;28;20235;-79
2022/03/01 08:11:18;;;;;;;601.17;278.73;;;;;;;6.75;43.42;95452.81;5088542;28;20189;-78
2022/03/01 08:13:43;;;;;;;12.00;11.03;;;;;;;6.80;45.52;95463.59;5084010;28;20167;-79
2022/03/01 08:16:10;;;;;;;5.60;5.00;;;;;;;6.47;44.21;95449.06;5080032;28;20304;-78
2022/03/01 08:18:36;;;;;;;4.93;4.13;;;;;;;7.02;44.66;95441.03;5085654;28;20185;-78
2022/03/01 08:21:01;;;;;;;17.67;12.33;;;;;;;6.91;44.22;95442.28;5086443;28;20173;-79
2022/03/01 08:23:27;;;;;;;151.30;43.93;;;;;;;6.90;44.22;95463.38;5088409;28;20166;-78
2022/03/01 08:25:53;;;;;;;132.70;53.97;;;;;;;6.28;45.35;95445.88;5095101;28;20290;-78
2022/03/01 08:28:18;;;;;;;188.50;93.90;;;;;;;6.19;46.04;95466.97;5085996;28;20181;-78
2022/03/01 08:30:46;;;;;;;490.13;89.77;;;;;;;5.48;46.82;95470.34;5086614;28;20743;-78
2022/03/01 08:33:11;;;;;;;179.17;122.33;;;;;;;5.05;49.12;95438.38;5079578;28;20165;-78
2022/03/01 08:35:36;;;;;;;1089.73;711.70;;;;;;;5.39;48.14;95469.53;5078829;28;20178;-78
2022/03/01 08:38:04;;;;;;;1304.07;665.30;;;;;;;5.92;49.61;95474.22;5085212;28;20185;-78
2022/03/01 08:40:37;;;;;;;1760.70;829.33;;;;;;;6.22;47.79;95456.19;5078947;28;20265;-79
2022/03/01 08:43:03;;;;;;;725.27;446.57;;;;;;;6.59;45.96;95474.66;5081984;28;20186;-78
2022/03/01 08:45:29;;;;;;;530.13;286.33;;;;;;;6.41;46.47;95469.66;5073992;28;20212;-80
2022/03/01 08:47:54;;;;;;;701.87;347.63;;;;;;;6.70;45.67;95468.22;5083019;28;20261;-79
2022/03/01 08:50:35;;;;;;;843.93;269.23;;;;;;;6.29;45.51;95462.38;5080572;28;20201;-80
2022/03/01 08:53:01;;;;;;;1028.47;433.70;;;;;;;6.42;46.18;95468.69;5077699;28;20180;-79
2022/03/01 08:55:27;;;;;;;1944.83;651.47;;;;;;;6.93;44.72;95455.97;5082743;28;20252;-79
2022/03/01 08:57:52;;;;;;;496.50;233.47;;;;;;;7.13;43.35;95446.69;5084833;28;20266;-78
2022/03/01 09:00:18;;;;;;;727.67;368.80;;;;;;;7.20;43.52;95412.75;5076020;28;20371;-78
2022/03/01 09:02:44;;;;;;;219.77;148.77;;;;;;;7.86;44.54;95464.41;5077603;28;20627;-80
2022/03/01 09:05:10;;;;;;;641.33;258.67;;;;;;;7.84;42.76;95457.72;5082646;28;20182;-78
2022/03/01 09:07:37;;;;;;;328.90;167.07;;;;;;;8.02;44.15;95457.38;5082638;28;20538;-77
2022/03/01 09:10:04;;;;;;;1355.43;593.33;;;;;;;7.97;41.91;95461.34;5082272;28;20228;-77
2022/03/01 09:12:30;;;;;;;1130.50;524.60;;;;;;;7.42;42.91;95461.69;5091078;28;20177;-78
2022/03/01 09:14:55;;;;;;;571.63;474.73;;;;;;;7.50;44.08;95453.78;5082876;28;20209;-79
2022/03/01 09:17:21;;;;;;;392.63;345.17;;;;;;;8.18;43.78;95465.06;5082505;28;20233;-79
2022/03/01 09:19:46;;;;;;;248.60;205.80;;;;;;;8.58;41.11;95472.47;5082299;28;20653;-79
2022/03/01 09:22:13;;;;;;;785.23;365.90;;;;;;;8.56;42.34;95457.94;5082889;28;20179;-79
2022/03/01 09:24:39;;;;;;;613.70;389.60;;;;;;;8.62;40.36;95472.94;5082481;28;20592;-78
2022/03/01 09:27:05;;;;;;;1307.50;461.57;;;;;;;7.68;41.38;95477.03;5076279;28;20221;-78
2022/03/01 09:29:31;;;;;;;1999.90;999.90;;;;;;;7.15;42.10;95476.13;5085291;28;20268;-78
2022/03/01 09:31:57;;;;;;;1450.87;703.67;;;;;;;6.89;43.42;95480.88;5083031;28;20178;-78
2022/03/01 09:34:23;;;;;;;1999.90;999.90;;;;;;;6.27;44.37;95444.22;5084638;28;20186;-78
2022/03/01 09:36:49;;;;;;;1263.90;552.90;;;;;;;5.75;45.90;95479.63;5089279;28;20183;-78
2022/03/01 09:39:14;;;;;;;466.77;305.43;;;;;;;5.59;47.42;95483.88;5078123;28;20641;-79
2022/03/01 09:41:40;;;;;;;1192.63;483.40;;;;;;;5.27;46.69;95456.00;5082016;28;20577;-78
2022/03/01 09:44:06;;;;;;;739.20;318.53;;;;;;;5.18;47.16;95430.06;5084568;28;20189;-79
2022/03/01 09:46:32;;;;;;;773.23;534.27;;;;;;;5.58;47.07;95471.00;5085264;28;20706;-78
2022/03/01 09:48:57;;;;;;;892.00;487.17;;;;;;;5.25;47.19;95438.88;5084018;28;20264;-78
2022/03/01 09:51:24;;;;;;;937.03;612.13;;;;;;;4.92;48.62;95470.16;5081898;28;20226;-78
2022/03/01 09:53:51;;;;;;;655.90;488.47;;;;;;;4.93;49.32;95460.53;5083233;28;20289;-78
2022/03/01 09:56:18;;;;;;;531.37;344.83;;;;;;;5.16;49.28;95469.38;5076977;28;20235;-78
2022/03/01 09:58:46;;;;;;;318.13;288.10;;;;;;;5.16;48.78;95476.38;5078151;28;20360;-78
2022/03/01 10:01:12;;;;;;;1780.27;387.20;;;;;;;4.48;47.87;95453.94;5077105;28;20182;-79
2022/03/01 10:03:38;;;;;;;905.30;339.27;;;;;;;4.01;50.07;95440.56;5090973;28;20343;-77
2022/03/01 10:06:07;;;;;;;391.20;338.47;;;;;;;4.24;50.50;95468.66;5082961;28;20635;-78
2022/03/01 10:08:33;;;;;;;1019.33;345.17;;;;;;;4.26;50.52;95470.13;5087475;28;20763;-78
2022/03/01 10:10:58;;;;;;;86.10;64.20;;;;;;;4.02;53.21;95460.41;5074855;28;20284;-78
2022/03/01 10:13:29;;;;;;;19.33;17.43;;;;;;;4.12;53.85;95471.53;5084064;28;20185;-77
2022/03/01 10:16:11;;;;;;;8.40;4.37;;;;;;;3.93;55.15;95460.53;5088972;28;20174;-79
2022/03/01 10:18:39;;;;;;;6.03;3.77;;;;;;;4.04;56.01;95449.84;5082345;28;20170;-77
2022/03/01 10:21:06;;;;;;;6.87;3.73;;;;;;;4.29;53.80;95453.38;5072424;28;20684;-78
2022/03/01 10:23:32;;;;;;;5.37;3.53;;;;;;;4.28;53.40;95468.19;5080977;28;20253;-78
2022/03/01 10:26:10;;;;;;;32.00;13.87;;;;;;;3.88;55.02;95434.16;5076301;28;20182;-78
2022/03/01 10:28:38;;;;;;;7.60;4.27;;;;;;;4.06;54.63;95445.31;5084836;28;20182;-78
2022/03/01 10:31:18;;;;;;;7.67;4.20;;;;;;;3.93;56.32;95457.94;5084422;28;20174;-78
2022/03/01 10:33:56;;;;;;;6.47;3.50;;;;;;;3.95;56.33;95451.59;5081979;28;20657;-79
2022/03/01 10:36:24;;;;;;;6.90;4.07;;;;;;;4.01;56.78;95460.56;5081126;28;20178;-78
2022/03/01 10:39:13;;;;;;;8.37;4.23;;;;;;;4.07;55.62;95442.53;5081170;28;20206;-78
2022/03/01 10:41:41;;;;;;;6.40;3.83;;;;;;;4.05;55.77;95444.50;5081770;28;20672;-79
2022/03/01 10:44:12;;;;;;;6.33;3.80;;;;;;;4.07;56.27;95439.09;5091751;28;20162;-78
2022/03/01 10:46:40;;;;;;;8.50;3.70;;;;;;;3.93;56.26;95385.81;5080512;28;20201;-78
2022/03/01 10:49:05;;;;;;;5.80;4.40;;;;;;;4.38;55.94;95432.41;5082696;28;20174;-78
2022/03/01 10:51:32;;;;;;;6.47;3.90;;;;;;;4.49;55.66;95426.91;5084057;28;20607;-79
2022/03/01 10:53:59;;;;;;;6.97;4.20;;;;;;;4.66;55.64;95409.50;5081910;28;20181;-79
2022/03/01 10:56:34;;;;;;;7.30;4.37;;;;;;;4.97;52.52;95432.34;5080931;28;20162;-78
2022/03/01 10:59:00;;;;;;;7.30;3.87;;;;;;;5.10;53.10;95430.06;5080937;28;20644;-78
2022/03/01 11:01:27;;;;;;;8.77;4.30;;;;;;;5.41;53.98;95414.56;5081001;28;20178;-78
2022/03/01 11:03:53;;;;;;;5.97;3.97;;;;;;;5.68;51.29;95424.63;5075512;28;20265;-78
2022/03/01 11:06:19;;;;;;;5.60;3.77;;;;;;;5.85;50.54;95415.78;5083404;28;20272;-80
2022/03/01 11:08:45;;;;;;;5.43;3.93;;;;;;;5.83;48.79;95412.50;5084044;28;20201;-79
2022/03/01 11:11:11;;;;;;;7.23;4.73;;;;;;;5.99;49.48;95422.13;5081752;28;20186;-78
2022/03/01 11:13:39;;;;;;;7.50;3.90;;;;;;;6.11;49.68;95415.56;5077421;28;20173;-79
2022/03/01 11:16:29;;;;;;;7.67;4.30;;;;;;;5.76;47.60;95414.16;5078308;28;20214;-78